createdAt,value
2023-03-07T00:00:31.895Z,61.53
2023-03-07T00:03:48.146Z,61.46
2023-03-07T00:06:50.032Z,61.47
2023-03-07T00:09:52.569Z,61.56
2023-03-07T00:12:54.455Z,61.57
2023-03-07T00:16:03.453Z,61.60
2023-03-07T00:19:07.461Z,61.72
2023-03-07T00:22:11.807Z,61.76
2023-03-07T00:25:14.965Z,61.97
2023-03-07T00:28:16.683Z,62.02
2023-03-07T00:31:19.828Z,62.03
2023-03-07T00:34:21.847Z,61.88
2023-03-07T00:37:23.975Z,62.09
2023-03-07T00:40:25.869Z,61.92
2023-03-07T00:43:28.227Z,62.09
2023-03-07T00:46:29.922Z,62.12
2023-03-07T00:49:31.945Z,62.20
2023-03-07T00:52:33.844Z,62.15
2023-03-07T00:55:35.838Z,62.45
2023-03-07T00:58:37.800Z,62.42
2023-03-07T01:01:39.713Z,62.56
2023-03-07T01:04:41.607Z,62.24
2023-03-07T01:07:44.616Z,62.37
2023-03-07T01:10:50.256Z,62.50
2023-03-07T01:13:55.649Z,62.55
2023-03-07T01:16:58.108Z,62.60
2023-03-07T01:20:00.351Z,62.21
2023-03-07T01:23:03.117Z,62.71
2023-03-07T01:26:05.066Z,62.43
2023-03-07T01:29:07.807Z,62.57
2023-03-07T01:32:10.928Z,62.42
2023-03-07T01:35:12.903Z,62.46
2023-03-07T01:38:14.835Z,62.38
2023-03-07T01:41:16.804Z,62.56
2023-03-07T01:44:27.256Z,62.75
2023-03-07T01:47:29.545Z,62.67
2023-03-07T01:50:31.468Z,62.63
2023-03-07T01:53:33.766Z,62.43
2023-03-07T01:56:37.872Z,62.77
2023-03-07T01:59:46.627Z,62.69
2023-03-07T02:03:06.648Z,62.74
2023-03-07T02:06:12.075Z,62.96
2023-03-07T02:09:18.333Z,63.06
2023-03-07T02:12:22.992Z,63.12
2023-03-07T02:15:25.259Z,62.92
2023-03-07T02:18:33.111Z,63.01
2023-03-07T02:22:11.827Z,62.81
2023-03-07T02:25:34.226Z,62.92
2023-03-07T02:28:36.569Z,63.01
2023-03-07T02:31:38.575Z,63.10
2023-03-07T02:34:40.465Z,63.19
2023-03-07T02:37:58.333Z,63.15
2023-03-07T02:41:00.584Z,63.29
2023-03-07T02:44:02.642Z,63.25
2023-03-07T02:47:08.249Z,63.10
2023-03-07T02:50:11.136Z,63.28
2023-03-07T02:53:15.294Z,63.50
2023-03-07T02:56:17.344Z,63.29
2023-03-07T02:59:19.386Z,63.40
2023-03-07T03:02:21.293Z,63.50
2023-03-07T03:05:23.475Z,63.32
2023-03-07T03:08:26.950Z,63.50
2023-03-07T03:11:28.767Z,63.43
2023-03-07T03:14:31.814Z,63.48
2023-03-07T03:17:33.718Z,63.53
2023-03-07T03:20:38.859Z,63.67
2023-03-07T03:23:40.797Z,63.47
2023-03-07T03:26:43.705Z,63.77
2023-03-07T03:29:45.760Z,63.59
2023-03-07T03:32:47.820Z,63.99
2023-03-07T03:35:50.522Z,63.69
2023-03-07T03:38:57.481Z,63.81
2023-03-07T03:41:59.557Z,64.01
2023-03-07T03:45:01.584Z,63.87
2023-03-07T03:48:03.517Z,64.03
2023-03-07T03:51:16.404Z,64.11
2023-03-07T03:54:18.303Z,64.44
2023-03-07T03:57:20.164Z,64.24
2023-03-07T04:00:23.096Z,64.48
2023-03-07T04:03:24.964Z,64.62
2023-03-07T04:06:32.479Z,64.64
2023-03-07T04:09:34.393Z,64.59
2023-03-07T04:12:36.437Z,64.78
2023-03-07T04:15:39.051Z,64.68
2023-03-07T04:18:40.980Z,64.77
2023-03-07T04:21:43.889Z,64.76
2023-03-07T04:24:46.826Z,64.78
2023-03-07T04:27:48.749Z,64.98
2023-03-07T04:30:55.558Z,64.75
2023-03-07T04:33:58.343Z,64.75
2023-03-07T04:37:00.469Z,65.21
2023-03-07T04:40:03.256Z,65.07
2023-03-07T04:43:05.338Z,65.03
2023-03-07T04:46:08.221Z,65.11
2023-03-07T04:49:09.936Z,65.26
2023-03-07T04:52:12.020Z,65.04
2023-03-07T04:55:14.453Z,64.98
2023-03-07T04:58:16.680Z,65.28
2023-03-07T05:01:18.817Z,65.24
2023-03-07T05:04:21.447Z,65.27
2023-03-07T05:07:23.797Z,65.15
2023-03-07T05:10:26.191Z,65.13
2023-03-07T05:13:28.275Z,64.99
2023-03-07T05:16:30.493Z,65.16
2023-03-07T05:19:32.376Z,64.98
2023-03-07T05:22:34.354Z,64.88
2023-03-07T05:25:36.444Z,64.67
2023-03-07T05:28:38.405Z,64.83
2023-03-07T05:31:40.203Z,64.76
2023-03-07T05:34:43.927Z,64.63
2023-03-07T05:37:46.247Z,64.48
2023-03-07T05:40:48.219Z,64.75
2023-03-07T05:43:50.495Z,64.65
2023-03-07T05:46:52.484Z,64.67
2023-03-07T05:49:54.462Z,64.58
2023-03-07T05:52:56.447Z,64.43
2023-03-07T05:56:01.097Z,64.53
2023-03-07T05:59:06.988Z,64.52
2023-03-07T06:02:09.155Z,64.49
2023-03-07T06:05:11.155Z,64.57
2023-03-07T06:08:12.949Z,64.36
2023-03-07T06:11:14.907Z,64.48
2023-03-07T06:14:16.860Z,64.44
2023-03-07T06:17:18.802Z,64.45
2023-03-07T06:20:20.733Z,64.53
2023-03-07T06:23:22.981Z,64.50
2023-03-07T06:26:24.969Z,64.21
2023-03-07T06:29:28.067Z,64.23
2023-03-07T06:32:30.846Z,64.60
2023-03-07T06:35:34.161Z,64.18
2023-03-07T06:38:36.274Z,64.12
2023-03-07T06:41:38.211Z,64.03
2023-03-07T06:44:40.939Z,64.05
2023-03-07T06:47:43.761Z,63.95
2023-03-07T06:50:46.698Z,63.85
2023-03-07T06:53:48.561Z,63.83
2023-03-07T06:56:51.008Z,63.90
2023-03-07T06:59:55.061Z,63.87
2023-03-07T07:02:57.433Z,63.43
2023-03-07T07:05:59.487Z,63.52
2023-03-07T07:09:01.577Z,63.62
2023-03-07T07:12:07.554Z,63.41
2023-03-07T07:15:10.041Z,63.29
2023-03-07T07:18:13.308Z,63.11
2023-03-07T07:21:15.420Z,63.07
2023-03-07T07:24:17.718Z,62.99
2023-03-07T07:27:19.569Z,62.86
2023-03-07T07:30:22.219Z,63.09
2023-03-07T07:33:24.213Z,62.81
2023-03-07T07:36:26.324Z,62.88
2023-03-07T07:39:28.354Z,62.80
2023-03-07T07:42:32.283Z,62.76
2023-03-07T07:45:50.438Z,62.55
2023-03-07T07:48:55.147Z,62.59
2023-03-07T07:51:57.551Z,62.46
2023-03-07T07:54:59.466Z,62.00
2023-03-07T07:58:01.830Z,62.06
2023-03-07T08:01:19.687Z,61.92
2023-03-07T08:04:21.802Z,61.89
2023-03-07T08:07:23.694Z,61.92
2023-03-07T08:10:25.644Z,61.49
2023-03-07T08:13:29.922Z,61.91
2023-03-07T08:16:31.891Z,61.75
2023-03-07T08:19:33.892Z,61.56
2023-03-07T08:22:39.574Z,61.34
2023-03-07T08:25:41.592Z,61.45
2023-03-07T08:28:44.128Z,61.48
2023-03-07T08:31:48.165Z,61.18
2023-03-07T08:34:50.079Z,61.22
2023-03-07T08:37:57.595Z,61.24
2023-03-07T08:41:01.364Z,61.23
2023-03-07T08:44:03.460Z,61.04
2023-03-07T08:47:05.586Z,61.31
2023-03-07T08:50:08.605Z,61.02
2023-03-07T08:53:10.512Z,60.59
2023-03-07T08:56:16.033Z,60.62
2023-03-07T08:59:17.912Z,60.32
2023-03-07T09:02:19.973Z,60.26
2023-03-07T09:05:22.167Z,60.27
2023-03-07T09:08:24.462Z,60.20
2023-03-07T09:11:26.568Z,59.86
2023-03-07T09:14:28.804Z,59.75
2023-03-07T09:17:30.695Z,59.47
2023-03-07T09:20:32.661Z,59.12
2023-03-07T09:23:34.657Z,58.99
2023-03-07T09:26:36.918Z,58.99
2023-03-07T09:29:38.768Z,58.81
2023-03-07T09:32:40.906Z,58.65
2023-03-07T09:35:43.140Z,58.44
2023-03-07T09:38:47.388Z,58.20
2023-03-07T09:42:00.384Z,57.92
2023-03-07T09:45:29.036Z,57.62
2023-03-07T09:48:47.391Z,57.30
2023-03-07T09:51:53.167Z,57.28
2023-03-07T09:55:04.759Z,56.70
2023-03-07T09:58:16.071Z,56.47
2023-03-07T10:01:23.638Z,56.40
2023-03-07T10:04:51.374Z,56.24
2023-03-07T10:07:54.660Z,56.13
2023-03-07T10:11:11.181Z,56.18
2023-03-07T10:14:37.204Z,55.71
2023-03-07T10:18:09.725Z,55.66
2023-03-07T10:21:30.985Z,55.27
2023-03-07T10:24:47.404Z,54.92
2023-03-07T10:27:54.972Z,54.72
2023-03-07T10:31:02.151Z,54.58
2023-03-07T10:34:37.701Z,54.20
2023-03-07T10:37:54.706Z,53.83
2023-03-07T10:41:06.642Z,53.93
2023-03-07T10:44:18.549Z,53.63
2023-03-07T10:47:23.800Z,53.47
2023-03-07T10:50:28.425Z,53.50
2023-03-07T10:53:34.853Z,53.30
2023-03-07T10:56:37.286Z,53.19
2023-03-07T10:59:43.053Z,53.10
2023-03-07T11:02:46.258Z,52.87
2023-03-07T11:05:49.237Z,52.77
2023-03-07T11:08:51.053Z,52.75
2023-03-07T11:12:09.686Z,52.51
2023-03-07T11:15:20.926Z,52.55
2023-03-07T11:18:29.365Z,52.52
2023-03-07T11:21:35.321Z,52.35
2023-03-07T11:24:38.520Z,52.27
2023-03-07T11:27:53.791Z,52.30
2023-03-07T11:31:29.142Z,52.40
2023-03-07T11:34:37.236Z,52.22
2023-03-07T11:37:42.976Z,51.97
2023-03-07T11:40:55.868Z,51.94
2023-03-07T11:44:00.460Z,51.84
2023-03-07T11:47:08.512Z,51.58
2023-03-07T11:50:16.598Z,51.43
2023-03-07T11:53:37.056Z,51.47
2023-03-07T11:56:46.075Z,51.37
2023-03-07T11:59:58.947Z,51.38
2023-03-07T12:03:03.837Z,51.37
2023-03-07T12:06:17.951Z,51.43
2023-03-07T12:09:33.278Z,51.39
2023-03-07T12:12:56.017Z,51.47
2023-03-07T12:16:16.686Z,51.21
2023-03-07T12:19:42.979Z,51.00
2023-03-07T12:23:14.997Z,50.75
2023-03-07T12:26:19.826Z,50.79
2023-03-07T12:29:34.004Z,50.45
2023-03-07T12:32:37.693Z,50.52
2023-03-07T12:35:49.694Z,50.40
2023-03-07T12:39:02.688Z,50.51
2023-03-07T12:42:17.747Z,50.56
2023-03-07T12:45:24.419Z,50.81
2023-03-07T12:48:42.825Z,50.80
2023-03-07T12:51:48.778Z,50.73
2023-03-07T12:55:41.764Z,50.66
2023-03-07T12:59:01.997Z,50.67
2023-03-07T13:02:31.829Z,50.63
2023-03-07T13:05:36.586Z,50.80
2023-03-07T13:08:40.196Z,50.87
2023-03-07T13:12:21.898Z,50.75
2023-03-07T13:15:25.260Z,50.74
2023-03-07T13:18:31.718Z,50.90
2023-03-07T13:21:33.939Z,50.87
2023-03-07T13:24:40.744Z,50.83
2023-03-07T13:27:51.491Z,50.84
2023-03-07T13:31:14.884Z,50.59
2023-03-07T13:34:45.910Z,50.42
2023-03-07T13:37:52.947Z,50.55
2023-03-07T13:41:00.015Z,50.42
2023-03-07T13:44:02.797Z,50.33
2023-03-07T13:47:42.930Z,50.36
2023-03-07T13:50:44.861Z,50.20
2023-03-07T13:53:54.284Z,50.17
2023-03-07T13:56:56.673Z,50.19
2023-03-07T14:00:00.246Z,50.35
2023-03-07T14:03:02.428Z,50.17
2023-03-07T14:06:28.144Z,50.38
2023-03-07T14:09:43.053Z,50.54
2023-03-07T14:13:14.935Z,50.56
2023-03-07T14:16:25.691Z,50.52
2023-03-07T14:19:54.741Z,50.65
2023-03-07T14:23:27.272Z,50.53
2023-03-07T14:26:32.808Z,50.59
2023-03-07T14:29:34.720Z,50.48
2023-03-07T14:32:40.227Z,50.67
2023-03-07T14:35:44.406Z,50.63
2023-03-07T14:38:50.114Z,50.62
2023-03-07T14:42:00.994Z,50.62
2023-03-07T14:45:41.063Z,50.69
2023-03-07T14:49:06.444Z,50.87
2023-03-07T14:52:21.508Z,50.90
2023-03-07T14:55:38.247Z,50.95
2023-03-07T14:58:53.297Z,51.05
2023-03-07T15:01:56.953Z,51.01
2023-03-07T15:04:58.945Z,51.12
2023-03-07T15:08:01.140Z,51.14
2023-03-07T15:11:43.807Z,51.10
2023-03-07T15:14:51.796Z,50.96
2023-03-07T15:17:57.304Z,51.11
2023-03-07T15:21:01.087Z,51.24
2023-03-07T15:24:03.273Z,51.06
2023-03-07T15:27:09.799Z,51.07
2023-03-07T15:30:24.487Z,51.07
2023-03-07T15:33:30.100Z,51.35
2023-03-07T15:36:32.723Z,51.35
2023-03-07T15:39:35.051Z,51.27
2023-03-07T15:42:55.057Z,51.17
2023-03-07T15:46:14.894Z,51.13
2023-03-07T15:49:38.556Z,51.31
2023-03-07T15:52:41.104Z,51.30
2023-03-07T15:55:53.076Z,51.28
2023-03-07T15:58:59.674Z,51.41
2023-03-07T16:02:33.332Z,51.44
2023-03-07T16:05:37.119Z,51.24
2023-03-07T16:08:38.975Z,51.23
2023-03-07T16:11:41.616Z,51.32
2023-03-07T16:14:46.126Z,51.31
2023-03-07T16:17:52.556Z,51.38
2023-03-07T16:20:55.042Z,51.34
2023-03-07T16:23:56.908Z,51.27
2023-03-07T16:26:59.004Z,51.53
2023-03-07T16:30:01.002Z,51.44
2023-03-07T16:33:02.915Z,51.41
2023-03-07T16:36:05.275Z,51.43
2023-03-07T16:39:07.141Z,51.48
2023-03-07T16:42:19.440Z,51.63
2023-03-07T16:45:30.301Z,51.67
2023-03-07T16:48:32.811Z,51.84
2023-03-07T16:51:34.879Z,51.76
2023-03-07T16:54:36.702Z,52.07
2023-03-07T16:57:39.611Z,51.88
2023-03-07T17:00:41.977Z,51.94
2023-03-07T17:03:43.937Z,51.88
2023-03-07T17:06:48.745Z,52.13
2023-03-07T17:09:54.429Z,52.10
2023-03-07T17:12:57.464Z,52.16
2023-03-07T17:15:59.393Z,52.04
2023-03-07T17:19:01.272Z,52.27
2023-03-07T17:22:03.151Z,52.26
2023-03-07T17:25:05.548Z,52.29
2023-03-07T17:28:12.812Z,52.30
2023-03-07T17:31:14.668Z,52.62
2023-03-07T17:34:29.596Z,52.33
2023-03-07T17:37:31.521Z,52.46
2023-03-07T17:40:33.493Z,52.53
2023-03-07T17:43:35.547Z,52.44
2023-03-07T17:46:37.445Z,52.67
2023-03-07T17:49:39.413Z,52.68
2023-03-07T17:52:41.292Z,52.80
2023-03-07T17:55:43.765Z,52.72
2023-03-07T17:58:45.698Z,52.70
2023-03-07T18:01:47.574Z,52.82
2023-03-07T18:04:50.934Z,53.00
2023-03-07T18:07:53.192Z,53.16
2023-03-07T18:11:01.161Z,53.10
2023-03-07T18:14:03.117Z,53.47
2023-03-07T18:17:04.979Z,53.38
2023-03-07T18:20:10.452Z,53.58
2023-03-07T18:23:12.453Z,53.81
2023-03-07T18:26:15.344Z,53.92
2023-03-07T18:29:17.497Z,53.80
2023-03-07T18:32:19.412Z,53.96
2023-03-07T18:35:22.776Z,54.01
2023-03-07T18:38:25.360Z,54.16
2023-03-07T18:41:27.672Z,54.44
2023-03-07T18:44:29.370Z,54.47
2023-03-07T18:47:31.849Z,54.60
2023-03-07T18:50:33.826Z,54.93
2023-03-07T18:53:36.890Z,54.92
2023-03-07T18:56:38.828Z,55.09
2023-03-07T18:59:40.795Z,55.17
2023-03-07T19:02:43.101Z,55.42
2023-03-07T19:05:48.110Z,55.40
2023-03-07T19:08:50.590Z,55.47
2023-03-07T19:11:52.785Z,55.57
2023-03-07T19:14:55.171Z,55.85
2023-03-07T19:17:57.075Z,55.91
2023-03-07T19:20:59.019Z,55.83
2023-03-07T19:24:03.837Z,56.10
2023-03-07T19:27:05.941Z,56.33
2023-03-07T19:30:10.613Z,56.49
2023-03-07T19:33:12.432Z,56.69
2023-03-07T19:36:27.307Z,56.81
2023-03-07T19:39:29.388Z,56.63
2023-03-07T19:42:31.221Z,57.16
2023-03-07T19:45:33.548Z,57.18
2023-03-07T19:48:35.339Z,57.17
2023-03-07T19:51:37.185Z,57.11
2023-03-07T19:54:39.470Z,57.26
2023-03-07T19:57:41.360Z,57.32
2023-03-07T20:00:45.889Z,57.53
2023-03-07T20:03:48.550Z,57.42
2023-03-07T20:06:50.515Z,57.78
2023-03-07T20:09:52.373Z,57.72
2023-03-07T20:12:54.237Z,57.70
2023-03-07T20:15:56.076Z,57.94
2023-03-07T20:19:00.673Z,57.95
2023-03-07T20:22:04.247Z,58.06
2023-03-07T20:25:06.627Z,58.05
2023-03-07T20:28:09.280Z,58.13
2023-03-07T20:31:12.468Z,58.18
2023-03-07T20:34:14.333Z,58.45
2023-03-07T20:37:16.180Z,58.60
2023-03-07T20:40:18.373Z,58.74
2023-03-07T20:43:20.233Z,58.32
2023-03-07T20:46:22.402Z,58.42
2023-03-07T20:49:24.214Z,58.39
2023-03-07T20:52:26.120Z,58.82
2023-03-07T20:55:29.008Z,58.66
2023-03-07T20:58:31.880Z,58.89
2023-03-07T21:01:34.478Z,58.94
2023-03-07T21:04:36.682Z,58.88
2023-03-07T21:07:38.554Z,58.96
2023-03-07T21:10:40.397Z,58.85
2023-03-07T21:13:44.693Z,58.94
2023-03-07T21:16:47.182Z,58.75
2023-03-07T21:19:49.013Z,59.13
2023-03-07T21:22:50.886Z,58.99
2023-03-07T21:25:55.083Z,59.27
2023-03-07T21:28:57.993Z,59.27
2023-03-07T21:32:01.330Z,59.17
2023-03-07T21:35:03.605Z,59.34
2023-03-07T21:38:05.841Z,59.10
2023-03-07T21:41:08.037Z,59.35
2023-03-07T21:44:09.957Z,59.41
2023-03-07T21:47:12.459Z,59.46
2023-03-07T21:50:14.373Z,59.68
2023-03-07T21:53:17.376Z,59.31
2023-03-07T21:56:19.244Z,59.38
2023-03-07T21:59:21.532Z,59.64
2023-03-07T22:02:23.409Z,59.60
2023-03-07T22:05:25.351Z,59.65
2023-03-07T22:08:27.141Z,59.60
2023-03-07T22:11:28.984Z,59.62
2023-03-07T22:14:30.932Z,59.79
2023-03-07T22:17:33.215Z,59.75
2023-03-07T22:20:37.468Z,59.89
2023-03-07T22:23:39.520Z,59.81
2023-03-07T22:26:41.384Z,59.94
2023-03-07T22:29:43.329Z,59.87
2023-03-07T22:32:45.182Z,60.11
2023-03-07T22:35:55.897Z,60.12
2023-03-07T22:38:57.763Z,60.27
2023-03-07T22:41:59.851Z,59.92
2023-03-07T22:45:01.690Z,60.25
2023-03-07T22:48:03.653Z,60.26
2023-03-07T22:51:12.388Z,60.20
2023-03-07T22:54:14.281Z,60.08
2023-03-07T22:57:16.136Z,60.43
2023-03-07T23:00:18.449Z,60.41
2023-03-07T23:03:20.222Z,60.26
2023-03-07T23:06:23.972Z,60.53
2023-03-07T23:09:25.836Z,60.62
2023-03-07T23:12:27.722Z,60.60
2023-03-07T23:15:29.694Z,60.74
2023-03-07T23:18:31.616Z,60.66
2023-03-07T23:21:34.030Z,60.46
2023-03-07T23:24:35.719Z,60.69
2023-03-07T23:27:37.530Z,61.00
2023-03-07T23:30:40.227Z,60.83
2023-03-07T23:33:42.123Z,61.10
2023-03-07T23:36:44.923Z,61.19
2023-03-07T23:39:46.749Z,61.17
2023-03-07T23:42:48.575Z,61.05
2023-03-07T23:45:50.395Z,61.17
2023-03-07T23:48:53.388Z,61.17
2023-03-07T23:51:55.506Z,60.99
2023-03-07T23:54:57.279Z,61.26
2023-03-07T23:57:59.131Z,61.29
